createdAt,value
2017-07-07T00:00:36.095Z,1032.85
2017-07-07T00:01:36.095Z,1032.8
2017-07-07T00:02:36.092Z,1032.81
2017-07-07T00:03:36.087Z,1032.84
2017-07-07T00:04:36.083Z,1032.83
2017-07-07T00:05:36.078Z,1032.82
2017-07-07T00:06:36.072Z,1032.81
2017-07-07T00:07:36.072Z,1032.8
2017-07-07T00:08:36.067Z,1032.77
2017-07-07T00:09:36.064Z,1032.78
2017-07-07T00:10:36.059Z,1032.8
2017-07-07T00:11:36.055Z,1032.77
2017-07-07T00:12:36.056Z,1032.77
2017-07-07T00:13:36.050Z,1032.76
2017-07-07T00:14:36.048Z,1032.72
2017-07-07T00:15:36.038Z,1032.71
2017-07-07T00:16:36.038Z,1032.67
2017-07-07T00:17:36.034Z,1032.68
2017-07-07T00:18:36.030Z,1032.67
2017-07-07T00:19:36.023Z,1032.66
2017-07-07T00:20:36.023Z,1032.66
2017-07-07T00:21:36.022Z,1032.7
2017-07-07T00:22:36.012Z,1032.69
2017-07-07T00:23:36.010Z,1032.66
2017-07-07T00:24:36.005Z,1032.67
2017-07-07T00:25:36.006Z,1032.66
2017-07-07T00:26:35.998Z,1032.65
2017-07-07T00:27:35.996Z,1032.65
2017-07-07T00:28:35.992Z,1032.67
2017-07-07T00:29:35.988Z,1032.62
2017-07-07T00:30:35.984Z,1032.64
2017-07-07T00:31:35.976Z,1032.63
2017-07-07T00:32:35.976Z,1032.59
2017-07-07T00:33:35.970Z,1032.6
2017-07-07T00:34:35.968Z,1032.6
2017-07-07T00:35:35.961Z,1032.55
2017-07-07T00:36:35.959Z,1032.58
2017-07-07T00:37:35.955Z,1032.54
2017-07-07T00:38:35.952Z,1032.53
2017-07-07T00:39:35.950Z,1032.54
2017-07-07T00:40:35.945Z,1032.52
2017-07-07T00:41:35.943Z,1032.48
2017-07-07T00:42:35.940Z,1032.48
2017-07-07T00:43:35.932Z,1032.47
2017-07-07T00:44:35.928Z,1032.48
2017-07-07T00:45:35.924Z,1032.46
2017-07-07T00:46:35.923Z,1032.41
2017-07-07T00:47:35.915Z,1032.37
2017-07-07T00:48:35.917Z,1032.33
2017-07-07T00:49:35.911Z,1032.31
2017-07-07T00:50:35.907Z,1032.24
2017-07-07T00:51:35.899Z,1032.2
2017-07-07T00:52:35.900Z,1032.21
2017-07-07T00:53:35.894Z,1032.15
2017-07-07T00:54:35.890Z,1032.16
2017-07-07T00:55:35.884Z,1032.11
2017-07-07T00:56:35.885Z,1032.06
2017-07-07T00:57:35.877Z,1032.04
2017-07-07T00:58:35.878Z,1032.01
2017-07-07T00:59:35.872Z,1032.02
2017-07-07T01:00:35.869Z,1032.01
2017-07-07T01:01:35.866Z,1032.01
2017-07-07T01:02:35.865Z,1031.96
2017-07-07T01:03:35.854Z,1031.93
2017-07-07T01:04:35.855Z,1031.93
2017-07-07T01:05:35.846Z,1031.87
2017-07-07T01:06:35.846Z,1031.85
2017-07-07T01:07:35.843Z,1031.83
2017-07-07T01:08:35.840Z,1031.82
2017-07-07T01:09:35.835Z,1031.8
2017-07-07T01:10:35.832Z,1031.81
2017-07-07T01:11:35.828Z,1031.82
2017-07-07T01:12:35.826Z,1031.83
2017-07-07T01:13:35.822Z,1031.81
2017-07-07T01:14:35.817Z,1031.71
2017-07-07T01:15:35.816Z,1031.65
2017-07-07T01:16:35.811Z,1031.64
2017-07-07T01:17:35.807Z,1031.61
2017-07-07T01:18:35.806Z,1031.57
2017-07-07T01:19:35.801Z,1031.54
2017-07-07T01:20:35.797Z,1031.53
2017-07-07T01:21:35.789Z,1031.52
2017-07-07T01:22:35.788Z,1031.48
2017-07-07T01:23:35.783Z,1031.46
2017-07-07T01:24:35.782Z,1031.44
2017-07-07T01:25:35.777Z,1031.47
2017-07-07T01:26:35.775Z,1031.47
2017-07-07T01:27:35.772Z,1031.47
2017-07-07T01:28:35.772Z,1031.47
2017-07-07T01:29:35.765Z,1031.47
2017-07-07T01:30:35.763Z,1031.42
2017-07-07T01:31:35.757Z,1031.44
2017-07-07T01:32:35.752Z,1031.42
2017-07-07T01:33:35.749Z,1031.4
2017-07-07T01:34:35.742Z,1031.39
2017-07-07T01:35:35.745Z,1031.38
2017-07-07T01:36:35.737Z,1031.38
2017-07-07T01:37:35.736Z,1031.36
2017-07-07T01:38:35.732Z,1031.39
2017-07-07T01:39:35.728Z,1031.36
2017-07-07T01:40:35.725Z,1031.36
2017-07-07T01:41:35.720Z,1031.36
2017-07-07T01:42:35.718Z,1031.32
2017-07-07T01:43:35.715Z,1031.32
2017-07-07T01:44:35.709Z,1031.3
2017-07-07T01:45:35.707Z,1031.3
2017-07-07T01:46:35.706Z,1031.29
2017-07-07T01:47:35.700Z,1031.26
2017-07-07T01:48:35.693Z,1031.22
2017-07-07T01:49:35.692Z,1031.23
2017-07-07T01:50:35.685Z,1031.23
2017-07-07T01:51:35.687Z,1031.19
2017-07-07T01:52:35.682Z,1031.14
2017-07-07T01:53:35.679Z,1031.16
2017-07-07T01:54:35.671Z,1031.13
2017-07-07T01:55:35.672Z,1031.16
2017-07-07T01:56:35.667Z,1031.12
2017-07-07T01:57:35.664Z,1031.13
2017-07-07T01:58:35.658Z,1031.11
2017-07-07T01:59:35.658Z,1031.08
2017-07-07T02:00:35.651Z,1031.09
2017-07-07T02:01:35.650Z,1031.09
2017-07-07T02:02:35.642Z,1031.1
2017-07-07T02:03:35.642Z,1031.08
2017-07-07T02:04:35.638Z,1031.11
2017-07-07T02:05:35.635Z,1031.08
2017-07-07T02:06:35.636Z,1031.12
2017-07-07T02:07:35.630Z,1031.11
2017-07-07T02:08:35.622Z,1031.09
2017-07-07T02:09:35.619Z,1031.09
2017-07-07T02:10:35.613Z,1031.09
2017-07-07T02:11:35.615Z,1031.08
2017-07-07T02:12:35.609Z,1031.09
2017-07-07T02:13:35.606Z,1031.04
2017-07-07T02:14:35.600Z,1031.01
2017-07-07T02:15:35.598Z,1031
2017-07-07T02:16:35.597Z,1030.98
2017-07-07T02:17:35.593Z,1030.98
2017-07-07T02:18:35.587Z,1030.96
2017-07-07T02:19:35.582Z,1030.91
2017-07-07T02:20:35.579Z,1030.93
2017-07-07T02:21:35.577Z,1030.88
2017-07-07T02:22:35.571Z,1030.89
2017-07-07T02:23:35.569Z,1030.85
2017-07-07T02:24:35.568Z,1030.8
2017-07-07T02:25:35.561Z,1030.8
2017-07-07T02:26:35.561Z,1030.82
2017-07-07T02:27:35.551Z,1030.8
2017-07-07T02:28:35.552Z,1030.81
2017-07-07T02:29:35.548Z,1030.82
2017-07-07T02:30:35.540Z,1030.84
2017-07-07T02:31:35.540Z,1030.77
2017-07-07T02:32:35.540Z,1030.76
2017-07-07T02:33:35.533Z,1030.78
2017-07-07T02:34:35.526Z,1030.74
2017-07-07T02:35:35.522Z,1030.71
2017-07-07T02:36:35.521Z,1030.7
2017-07-07T02:37:35.579Z,1030.67
2017-07-07T02:38:35.515Z,1030.67
2017-07-07T02:39:35.511Z,1030.67
2017-07-07T02:40:35.509Z,1030.65
2017-07-07T02:41:35.502Z,1030.61
2017-07-07T02:42:35.497Z,1030.58
2017-07-07T02:43:35.499Z,1030.54
2017-07-07T02:44:35.493Z,1030.56
2017-07-07T02:45:35.489Z,1030.52
2017-07-07T02:46:35.484Z,1030.54
2017-07-07T02:47:35.484Z,1030.55
2017-07-07T02:48:35.480Z,1030.54
2017-07-07T02:49:35.476Z,1030.49
2017-07-07T02:50:35.471Z,1030.43
2017-07-07T02:51:35.468Z,1030.38
2017-07-07T02:52:35.465Z,1030.34
2017-07-07T02:53:35.462Z,1030.33
2017-07-07T02:54:35.516Z,1030.24
2017-07-07T02:55:35.454Z,1030.21
2017-07-07T02:56:35.446Z,1030.13
2017-07-07T02:57:35.447Z,1030.1
2017-07-07T02:58:35.439Z,1030.09
2017-07-07T02:59:35.439Z,1030.09
2017-07-07T03:00:35.433Z,1030.06
2017-07-07T03:01:35.435Z,1030.05
2017-07-07T03:02:35.429Z,1030.01
2017-07-07T03:03:35.425Z,1030.01
2017-07-07T03:04:35.420Z,1029.96
2017-07-07T03:05:35.418Z,1030.04
2017-07-07T03:06:35.410Z,1030.01
2017-07-07T03:07:35.406Z,1029.99
2017-07-07T03:08:35.406Z,1029.98
2017-07-07T03:09:35.403Z,1029.93
2017-07-07T03:10:35.398Z,1029.95
2017-07-07T03:11:35.397Z,1029.95
2017-07-07T03:12:35.396Z,1029.94
2017-07-07T03:13:35.390Z,1029.96
2017-07-07T03:14:35.388Z,1029.97
2017-07-07T03:15:35.379Z,1029.97
2017-07-07T03:16:35.381Z,1030.02
2017-07-07T03:17:35.373Z,1029.97
2017-07-07T03:18:35.371Z,1029.89
2017-07-07T03:19:35.366Z,1029.84
2017-07-07T03:20:35.367Z,1029.83
2017-07-07T03:21:35.362Z,1029.81
2017-07-07T03:22:35.355Z,1029.8
2017-07-07T03:23:35.350Z,1029.79
2017-07-07T03:24:35.353Z,1029.79
2017-07-07T03:25:35.346Z,1029.81
2017-07-07T03:26:35.345Z,1029.8
2017-07-07T03:27:35.339Z,1029.79
2017-07-07T03:28:35.340Z,1029.77
2017-07-07T03:29:35.334Z,1029.68
2017-07-07T03:30:35.336Z,1029.64
2017-07-07T03:31:35.323Z,1029.58
2017-07-07T03:32:35.324Z,1029.59
2017-07-07T03:33:35.321Z,1029.53
2017-07-07T03:34:35.322Z,1029.44
2017-07-07T03:35:35.310Z,1029.45
2017-07-07T03:36:35.310Z,1029.48
2017-07-07T03:37:35.305Z,1029.51
2017-07-07T03:38:35.303Z,1029.54
2017-07-07T03:39:35.301Z,1029.55
2017-07-07T03:40:35.549Z,1029.55
2017-07-07T03:41:35.293Z,1029.5
2017-07-07T03:42:35.290Z,1029.52
2017-07-07T03:43:35.287Z,1029.51
2017-07-07T03:44:35.285Z,1029.47
2017-07-07T03:45:35.281Z,1029.4
2017-07-07T03:46:35.279Z,1029.36
2017-07-07T03:47:35.276Z,1029.31
2017-07-07T03:48:35.275Z,1029.23
2017-07-07T03:49:35.267Z,1029.18
2017-07-07T03:50:35.269Z,1029.07
2017-07-07T03:51:35.264Z,1028.99
2017-07-07T03:52:35.259Z,1028.86
2017-07-07T03:53:35.256Z,1028.71
2017-07-07T03:54:35.256Z,1028.6
2017-07-07T03:55:35.255Z,1028.41
2017-07-07T03:56:35.247Z,1028.25
2017-07-07T03:57:35.245Z,1027.98
2017-07-07T03:58:35.245Z,1027.91
2017-07-07T03:59:35.248Z,1027.95
2017-07-07T04:00:35.237Z,1027.98
2017-07-07T04:01:35.238Z,1028.03
2017-07-07T04:02:35.234Z,1028.03
2017-07-07T04:03:35.235Z,1028.05
2017-07-07T04:04:35.230Z,1028.08
2017-07-07T04:05:35.230Z,1028.09
2017-07-07T04:06:35.227Z,1028.15
2017-07-07T04:07:35.226Z,1028.19
2017-07-07T04:08:35.224Z,1028.24
2017-07-07T04:09:35.224Z,1028.27
2017-07-07T04:10:35.217Z,1028.27
2017-07-07T04:11:35.219Z,1028.27
2017-07-07T04:12:35.214Z,1028.23
2017-07-07T04:13:35.213Z,1028.2
2017-07-07T04:14:35.212Z,1028.19
2017-07-07T04:15:35.213Z,1028.21
2017-07-07T04:16:35.207Z,1028.19
2017-07-07T04:17:35.209Z,1028.15
2017-07-07T04:18:35.202Z,1028.16
2017-07-07T04:19:35.204Z,1028.14
2017-07-07T04:20:35.198Z,1028.14
2017-07-07T04:21:35.198Z,1028.11
2017-07-07T04:22:35.198Z,1028.07
2017-07-07T04:23:35.199Z,1028.06
2017-07-07T04:24:35.194Z,1028.07
2017-07-07T04:25:35.190Z,1028.01
2017-07-07T04:26:35.190Z,1028.06
2017-07-07T04:27:35.190Z,1028.04
2017-07-07T04:28:35.186Z,1028.02
2017-07-07T04:29:35.186Z,1028.05
2017-07-07T04:30:35.185Z,1028.06
2017-07-07T04:31:35.181Z,1028.07
2017-07-07T04:32:35.180Z,1028.11
2017-07-07T04:33:35.179Z,1028.05
2017-07-07T04:34:35.176Z,1028.09
2017-07-07T04:35:35.178Z,1028.09
2017-07-07T04:36:35.173Z,1028.1
2017-07-07T04:37:35.172Z,1028.1
2017-07-07T04:38:35.173Z,1028.09
2017-07-07T04:39:35.166Z,1028.11
2017-07-07T04:40:35.167Z,1028.11
2017-07-07T04:41:35.162Z,1028.09
2017-07-07T04:42:35.163Z,1028.11
2017-07-07T04:43:35.163Z,1028.06
2017-07-07T04:44:35.157Z,1028.05
2017-07-07T04:45:35.155Z,1028.07
2017-07-07T04:46:35.157Z,1028.05
2017-07-07T04:47:35.156Z,1028.11
2017-07-07T04:48:35.149Z,1028.08
2017-07-07T04:49:35.154Z,1028.09
2017-07-07T04:50:35.151Z,1028.13
2017-07-07T04:51:35.149Z,1028.17
2017-07-07T04:52:35.142Z,1028.11
2017-07-07T04:53:35.145Z,1028.13
2017-07-07T04:54:35.141Z,1028.14
2017-07-07T04:55:35.144Z,1028.11
2017-07-07T04:56:35.141Z,1028.12
2017-07-07T04:57:35.137Z,1028.12
2017-07-07T04:58:35.133Z,1028.16
2017-07-07T04:59:35.130Z,1028.16
2017-07-07T05:00:35.132Z,1028.14
2017-07-07T05:01:35.130Z,1028.1
2017-07-07T05:02:35.127Z,1028.1
2017-07-07T05:03:35.128Z,1028.12
2017-07-07T05:04:35.124Z,1028.14
2017-07-07T05:05:35.125Z,1028.14
2017-07-07T05:06:35.117Z,1028.11
2017-07-07T05:07:35.119Z,1028.12
2017-07-07T05:08:35.113Z,1028.07
2017-07-07T05:09:35.116Z,1028.07
2017-07-07T05:10:35.111Z,1028.06
2017-07-07T05:11:35.110Z,1028.07
2017-07-07T05:12:35.109Z,1028.03
2017-07-07T05:13:35.109Z,1027.98
2017-07-07T05:14:35.106Z,1027.98
2017-07-07T05:15:35.103Z,1027.97
2017-07-07T05:16:35.101Z,1027.95
2017-07-07T05:17:35.101Z,1027.97
2017-07-07T05:18:35.097Z,1027.96
2017-07-07T05:19:35.093Z,1027.96
2017-07-07T05:20:35.091Z,1027.92
2017-07-07T05:21:35.087Z,1027.94
2017-07-07T05:22:35.087Z,1027.9
2017-07-07T05:23:35.089Z,1027.93
2017-07-07T05:24:35.086Z,1027.9
2017-07-07T05:25:35.081Z,1027.95
2017-07-07T05:26:35.083Z,1027.99
2017-07-07T05:27:35.075Z,1027.99
2017-07-07T05:28:35.077Z,1028.06
2017-07-07T05:29:35.073Z,1028.05
2017-07-07T05:30:35.069Z,1028.06
2017-07-07T05:31:35.072Z,1028.02
2017-07-07T05:32:35.069Z,1028
2017-07-07T05:33:35.067Z,1027.99
2017-07-07T05:34:35.068Z,1027.98
2017-07-07T05:35:35.062Z,1028
2017-07-07T05:36:35.061Z,1027.99
2017-07-07T05:37:35.057Z,1027.99
2017-07-07T05:38:35.056Z,1027.97
2017-07-07T05:39:35.055Z,1027.91
2017-07-07T05:40:35.053Z,1027.91
2017-07-07T05:41:35.052Z,1027.91
2017-07-07T05:42:35.048Z,1027.88
2017-07-07T05:43:35.047Z,1027.97
2017-07-07T05:44:35.045Z,1028.01
2017-07-07T05:45:35.040Z,1028.06
2017-07-07T05:46:35.043Z,1028.09
2017-07-07T05:47:35.037Z,1028.12
2017-07-07T05:48:35.033Z,1028.12
2017-07-07T05:49:35.043Z,1028.18
2017-07-07T05:50:35.032Z,1028.16
2017-07-07T05:51:35.033Z,1028.13
2017-07-07T05:52:35.029Z,1028.1
2017-07-07T05:53:35.028Z,1028.09
2017-07-07T05:54:35.025Z,1028.07
2017-07-07T05:55:35.021Z,1027.99
2017-07-07T05:56:35.022Z,1027.89
2017-07-07T05:57:35.018Z,1027.88
2017-07-07T05:58:35.018Z,1027.82
2017-07-07T05:59:35.018Z,1027.78
2017-07-07T06:00:35.015Z,1027.72
2017-07-07T06:01:35.009Z,1027.7
2017-07-07T06:02:35.013Z,1027.69
2017-07-07T06:03:35.007Z,1027.67
2017-07-07T06:04:35.003Z,1027.62
2017-07-07T06:05:35.003Z,1027.6
2017-07-07T06:06:34.998Z,1027.6
2017-07-07T06:07:35.004Z,1027.55
2017-07-07T06:08:34.996Z,1027.5
2017-07-07T06:09:35.000Z,1027.41
2017-07-07T06:10:34.994Z,1027.35
2017-07-07T06:11:34.994Z,1027.34
2017-07-07T06:12:34.990Z,1027.41
2017-07-07T06:13:34.991Z,1027.45
2017-07-07T06:14:34.988Z,1027.52
2017-07-07T06:15:34.987Z,1027.52
2017-07-07T06:16:34.985Z,1027.52
2017-07-07T06:17:34.985Z,1027.49
2017-07-07T06:18:34.982Z,1027.49
2017-07-07T06:19:34.979Z,1027.49
2017-07-07T06:20:34.974Z,1027.36
2017-07-07T06:21:34.975Z,1027.32
2017-07-07T06:22:34.973Z,1027.28
2017-07-07T06:23:34.973Z,1027.29
2017-07-07T06:24:34.969Z,1027.31
2017-07-07T06:25:34.972Z,1027.25
2017-07-07T06:26:34.969Z,1027.24
2017-07-07T06:27:34.965Z,1027.27
2017-07-07T06:28:34.963Z,1027.31
2017-07-07T06:29:34.964Z,1027.3
2017-07-07T06:30:34.960Z,1027.38
2017-07-07T06:31:34.960Z,1027.5
2017-07-07T06:32:34.961Z,1027.54
2017-07-07T06:33:34.956Z,1027.61
2017-07-07T06:34:34.952Z,1027.67
2017-07-07T06:35:34.955Z,1027.71
2017-07-07T06:36:34.953Z,1027.78
2017-07-07T06:37:34.951Z,1027.84
2017-07-07T06:38:34.949Z,1027.92
2017-07-07T06:39:34.945Z,1027.99
2017-07-07T06:40:34.947Z,1027.98
2017-07-07T06:41:34.941Z,1028.08
2017-07-07T06:42:34.944Z,1028.07
2017-07-07T06:43:34.942Z,1028.1
2017-07-07T06:44:34.943Z,1028.07
2017-07-07T06:45:34.938Z,1028.04
2017-07-07T06:46:34.936Z,1028.02
2017-07-07T06:47:34.936Z,1027.99
2017-07-07T06:48:34.934Z,1028
2017-07-07T06:49:34.929Z,1028.03
2017-07-07T06:50:34.925Z,1028.03
2017-07-07T06:51:34.928Z,1028.01
2017-07-07T06:52:34.926Z,1028.06
2017-07-07T06:53:34.924Z,1028.08
2017-07-07T06:54:34.922Z,1028.16
2017-07-07T06:55:34.920Z,1028.2
2017-07-07T06:56:34.918Z,1028.25
2017-07-07T06:57:34.914Z,1028.26
2017-07-07T06:58:34.914Z,1028.23
2017-07-07T06:59:34.913Z,1028.21
2017-07-07T07:00:34.909Z,1028.2
2017-07-07T07:01:34.903Z,1028.15
2017-07-07T07:02:34.905Z,1028.08
2017-07-07T07:03:34.903Z,1027.99
2017-07-07T07:04:34.900Z,1027.95
2017-07-07T07:05:34.895Z,1027.92
2017-07-07T07:06:34.897Z,1027.87
2017-07-07T07:07:34.894Z,1027.85
2017-07-07T07:08:34.891Z,1027.84
2017-07-07T07:09:34.886Z,1027.77
2017-07-07T07:10:34.886Z,1027.74
2017-07-07T07:11:34.882Z,1027.7
2017-07-07T07:12:34.883Z,1027.67
2017-07-07T07:13:34.879Z,1027.61
2017-07-07T07:14:34.879Z,1027.58
2017-07-07T07:15:34.874Z,1027.57
2017-07-07T07:16:34.871Z,1027.58
2017-07-07T07:17:34.869Z,1027.66
2017-07-07T07:18:34.869Z,1027.74
2017-07-07T07:19:34.867Z,1027.83
2017-07-07T07:20:34.864Z,1027.85
2017-07-07T07:21:34.861Z,1027.9
2017-07-07T07:22:34.858Z,1027.86
2017-07-07T07:23:34.859Z,1027.82
2017-07-07T07:24:34.854Z,1027.79
2017-07-07T07:25:34.847Z,1027.73
2017-07-07T07:26:34.850Z,1027.73
2017-07-07T07:27:34.847Z,1027.7
2017-07-07T07:28:34.840Z,1027.72
2017-07-07T07:29:34.839Z,1027.69
2017-07-07T07:30:34.836Z,1027.69
2017-07-07T07:31:34.836Z,1027.68
2017-07-07T07:32:34.834Z,1027.66
2017-07-07T07:33:34.834Z,1027.67
2017-07-07T07:34:34.830Z,1027.66
2017-07-07T07:35:34.827Z,1027.64
2017-07-07T07:36:34.822Z,1027.63
2017-07-07T07:37:34.820Z,1027.6
2017-07-07T07:38:34.821Z,1027.62
2017-07-07T07:39:34.824Z,1027.62
2017-07-07T07:40:34.811Z,1027.62
2017-07-07T07:41:34.812Z,1027.64
2017-07-07T07:42:34.810Z,1027.64
2017-07-07T07:43:34.805Z,1027.63
2017-07-07T07:44:34.804Z,1027.62
2017-07-07T07:45:34.803Z,1027.63
2017-07-07T07:46:34.798Z,1027.59
2017-07-07T07:47:34.800Z,1027.6
2017-07-07T07:48:34.792Z,1027.57
2017-07-07T07:49:34.791Z,1027.6
2017-07-07T07:50:34.793Z,1027.61
2017-07-07T07:51:34.788Z,1027.61
2017-07-07T07:52:34.787Z,1027.63
2017-07-07T07:53:34.781Z,1027.59
2017-07-07T07:54:34.781Z,1027.59
2017-07-07T07:55:34.779Z,1027.66
2017-07-07T07:56:34.779Z,1027.63
2017-07-07T07:57:34.771Z,1027.61
2017-07-07T07:58:34.830Z,1027.58
2017-07-07T07:59:34.770Z,1027.56
2017-07-07T08:00:34.768Z,1027.58
2017-07-07T08:01:34.766Z,1027.52
2017-07-07T08:02:34.763Z,1027.5
2017-07-07T08:03:34.757Z,1027.47
2017-07-07T08:04:34.759Z,1027.49
2017-07-07T08:05:34.752Z,1027.4
2017-07-07T08:06:34.753Z,1027.41
2017-07-07T08:07:34.750Z,1027.32
2017-07-07T08:08:34.748Z,1027.27
2017-07-07T08:09:34.747Z,1027.13
2017-07-07T08:10:34.745Z,1027.08
2017-07-07T08:11:34.745Z,1027.09
2017-07-07T08:12:34.739Z,1027.08
2017-07-07T08:13:34.735Z,1027.08
2017-07-07T08:14:34.735Z,1027.02
2017-07-07T08:15:34.734Z,1027.01
2017-07-07T08:16:34.729Z,1026.99
2017-07-07T08:17:34.735Z,1027.02
2017-07-07T08:18:34.726Z,1027.03
2017-07-07T08:19:34.728Z,1027.04
2017-07-07T08:20:34.725Z,1027.04
2017-07-07T08:21:34.725Z,1026.99
2017-07-07T08:22:34.718Z,1027.02
2017-07-07T08:23:34.721Z,1027.05
2017-07-07T08:24:34.719Z,1027.05
2017-07-07T08:25:34.715Z,1027.05
2017-07-07T08:26:34.711Z,1027.03
2017-07-07T08:27:34.712Z,1027.08
2017-07-07T08:28:34.708Z,1027.05
2017-07-07T08:29:34.710Z,1027.11
2017-07-07T08:30:34.707Z,1027.16
2017-07-07T08:31:34.706Z,1027.13
2017-07-07T08:32:34.700Z,1027.16
2017-07-07T08:33:34.703Z,1027.15
2017-07-07T08:34:34.700Z,1027.16
2017-07-07T08:35:34.701Z,1027.14
2017-07-07T08:36:34.697Z,1027.1
2017-07-07T08:37:34.698Z,1027.02
2017-07-07T08:38:34.694Z,1026.96
2017-07-07T08:39:34.690Z,1026.94
2017-07-07T08:40:34.693Z,1026.89
2017-07-07T08:41:34.692Z,1026.9
2017-07-07T08:42:34.688Z,1026.94
2017-07-07T08:43:34.684Z,1026.97
2017-07-07T08:44:34.685Z,1026.94
2017-07-07T08:45:34.684Z,1027.02
2017-07-07T08:46:34.680Z,1027.1
2017-07-07T08:47:34.677Z,1027.11
2017-07-07T08:48:34.682Z,1027.2
2017-07-07T08:49:34.677Z,1027.27
2017-07-07T08:50:34.680Z,1027.39
2017-07-07T08:51:34.671Z,1027.42
2017-07-07T08:52:34.673Z,1027.46
2017-07-07T08:53:34.670Z,1027.51
2017-07-07T08:54:34.670Z,1027.51
2017-07-07T08:55:34.671Z,1027.46
2017-07-07T08:56:34.669Z,1027.45
2017-07-07T08:57:34.669Z,1027.39
2017-07-07T08:58:34.665Z,1027.34
2017-07-07T08:59:34.664Z,1027.28
2017-07-07T09:00:34.662Z,1027.3
2017-07-07T09:01:34.662Z,1027.26
2017-07-07T09:02:34.667Z,1027.26
2017-07-07T09:03:34.660Z,1027.2
2017-07-07T09:04:34.658Z,1027.18
2017-07-07T09:05:34.653Z,1027.16
2017-07-07T09:06:34.655Z,1027.17
2017-07-07T09:07:34.657Z,1027.16
2017-07-07T09:08:34.657Z,1027.21
2017-07-07T09:09:34.651Z,1027.15
2017-07-07T09:10:34.655Z,1027.2
2017-07-07T09:11:34.648Z,1027.08
2017-07-07T09:12:34.648Z,1027.02
2017-07-07T09:13:34.648Z,1026.96
2017-07-07T09:14:34.650Z,1026.83
2017-07-07T09:15:34.647Z,1026.75
2017-07-07T09:16:34.647Z,1026.67
2017-07-07T09:17:34.643Z,1026.58
2017-07-07T09:18:34.645Z,1026.46
2017-07-07T09:19:34.641Z,1026.27
2017-07-07T09:20:34.644Z,1026.1
2017-07-07T09:21:34.642Z,1025.95
2017-07-07T09:22:34.643Z,1025.74
2017-07-07T09:23:34.641Z,1025.6
2017-07-07T09:24:34.647Z,1025.49
2017-07-07T09:25:34.641Z,1025.47
2017-07-07T09:26:34.645Z,1025.44
2017-07-07T09:27:34.640Z,1025.4
2017-07-07T09:28:34.643Z,1025.33
2017-07-07T09:29:34.640Z,1025.34
2017-07-07T09:30:34.645Z,1025.36
2017-07-07T09:31:34.645Z,1025.37
2017-07-07T09:32:34.647Z,1025.36
2017-07-07T09:33:34.647Z,1025.39
2017-07-07T09:34:34.648Z,1025.45
2017-07-07T09:35:34.649Z,1025.45
2017-07-07T09:36:34.651Z,1025.42
2017-07-07T09:37:34.649Z,1025.31
2017-07-07T09:38:34.652Z,1025.22
2017-07-07T09:39:34.652Z,1025.09
2017-07-07T09:40:34.655Z,1024.89
2017-07-07T09:41:34.654Z,1024.73
2017-07-07T09:42:34.658Z,1024.56
2017-07-07T09:43:34.660Z,1024.35
2017-07-07T09:44:34.663Z,1024.22
2017-07-07T09:45:34.663Z,1024.12
2017-07-07T09:46:34.665Z,1023.97
2017-07-07T09:47:34.664Z,1023.78
2017-07-07T09:48:34.670Z,1023.61
2017-07-07T09:49:34.673Z,1023.37
2017-07-07T09:50:34.673Z,1023.1
2017-07-07T09:51:34.678Z,1023.01
2017-07-07T09:52:34.683Z,1023
2017-07-07T09:53:34.686Z,1023.08
2017-07-07T09:54:34.690Z,1023.2
2017-07-07T09:55:34.693Z,1023.32
2017-07-07T09:56:34.698Z,1023.43
2017-07-07T09:57:34.702Z,1023.49
2017-07-07T09:58:34.707Z,1023.56
2017-07-07T09:59:34.707Z,1023.55
2017-07-07T10:00:34.712Z,1023.48
2017-07-07T10:01:34.717Z,1023.45
2017-07-07T10:02:34.723Z,1023.4
2017-07-07T10:03:34.731Z,1023.39
2017-07-07T10:04:34.734Z,1023.37
2017-07-07T10:05:34.741Z,1023.35
2017-07-07T10:06:34.743Z,1023.3
2017-07-07T10:07:34.752Z,1023.13
2017-07-07T10:08:34.756Z,1023.03
2017-07-07T10:09:34.762Z,1022.85
2017-07-07T10:10:34.767Z,1022.76
2017-07-07T10:11:34.771Z,1022.62
2017-07-07T10:12:34.782Z,1022.52
2017-07-07T10:13:34.785Z,1022.51
2017-07-07T10:14:34.794Z,1022.39
2017-07-07T10:15:34.797Z,1022.37
2017-07-07T10:16:34.802Z,1022.35
2017-07-07T10:17:34.812Z,1022.34
2017-07-07T10:18:34.817Z,1022.29
2017-07-07T10:19:34.826Z,1022.28
2017-07-07T10:20:34.833Z,1022.21
2017-07-07T10:21:34.840Z,1022.26
2017-07-07T10:22:34.843Z,1022.36
2017-07-07T10:23:34.857Z,1022.48
2017-07-07T10:24:34.862Z,1022.56
2017-07-07T10:25:34.871Z,1022.61
2017-07-07T10:26:34.875Z,1022.63
2017-07-07T10:27:34.885Z,1022.68
2017-07-07T10:28:34.889Z,1022.76
2017-07-07T10:29:34.899Z,1022.81
2017-07-07T10:30:34.907Z,1022.88
2017-07-07T10:31:34.915Z,1022.9
2017-07-07T10:32:34.922Z,1022.93
2017-07-07T10:33:34.930Z,1022.92
2017-07-07T10:34:34.936Z,1022.88
2017-07-07T10:35:34.945Z,1022.82
2017-07-07T10:36:34.948Z,1022.77
2017-07-07T10:37:34.959Z,1022.69
2017-07-07T10:38:34.964Z,1022.61
2017-07-07T10:39:34.975Z,1022.5
2017-07-07T10:40:34.983Z,1022.53
2017-07-07T10:41:34.990Z,1022.54
2017-07-07T10:42:34.995Z,1022.55
2017-07-07T10:43:35.005Z,1022.67
2017-07-07T10:44:35.012Z,1022.8
2017-07-07T10:45:35.022Z,1022.98
2017-07-07T10:46:35.025Z,1023.15
2017-07-07T10:47:35.037Z,1023.29
2017-07-07T10:48:35.044Z,1023.47
2017-07-07T10:49:35.054Z,1023.7
2017-07-07T10:50:35.055Z,1023.81
2017-07-07T10:51:35.067Z,1023.96
2017-07-07T10:52:35.075Z,1024.1
2017-07-07T10:53:35.081Z,1024.2
2017-07-07T10:54:35.087Z,1024.28
2017-07-07T10:55:35.091Z,1024.39
2017-07-07T10:56:35.101Z,1024.4
2017-07-07T10:57:35.105Z,1024.41
2017-07-07T10:58:35.114Z,1024.41
2017-07-07T10:59:35.119Z,1024.49
2017-07-07T11:00:35.129Z,1024.53
2017-07-07T11:01:35.130Z,1024.57
2017-07-07T11:02:35.135Z,1024.6
2017-07-07T11:03:35.143Z,1024.6
2017-07-07T11:04:35.149Z,1024.65
2017-07-07T11:05:35.156Z,1024.69
2017-07-07T11:06:35.156Z,1024.68
2017-07-07T11:07:35.162Z,1024.69
2017-07-07T11:08:35.175Z,1024.69
2017-07-07T11:09:35.178Z,1024.7
2017-07-07T11:10:35.183Z,1024.75
2017-07-07T11:11:35.185Z,1024.73
2017-07-07T11:12:35.190Z,1024.73
2017-07-07T11:13:35.199Z,1024.75
2017-07-07T11:14:35.202Z,1024.72
2017-07-07T11:15:35.206Z,1024.77
2017-07-07T11:16:35.209Z,1024.81
2017-07-07T11:17:35.219Z,1024.82
2017-07-07T11:18:35.217Z,1024.82
2017-07-07T11:19:35.225Z,1024.83
2017-07-07T11:20:35.230Z,1024.84
2017-07-07T11:21:35.235Z,1024.86
2017-07-07T11:22:35.240Z,1024.87
2017-07-07T11:23:35.241Z,1024.9
2017-07-07T11:24:35.246Z,1024.92
2017-07-07T11:25:35.253Z,1024.95
2017-07-07T11:26:35.253Z,1024.94
2017-07-07T11:27:35.263Z,1024.95
2017-07-07T11:28:35.265Z,1024.91
2017-07-07T11:29:35.270Z,1024.96
2017-07-07T11:30:35.273Z,1024.96
2017-07-07T11:31:35.278Z,1024.97
2017-07-07T11:32:35.279Z,1024.97
2017-07-07T11:33:35.288Z,1024.93
2017-07-07T11:34:35.287Z,1024.93
2017-07-07T11:35:35.298Z,1024.96
2017-07-07T11:36:35.302Z,1024.95
2017-07-07T11:37:35.308Z,1024.99
2017-07-07T11:38:35.308Z,1024.99
2017-07-07T11:39:35.314Z,1024.98
2017-07-07T11:40:35.318Z,1025.1
2017-07-07T11:41:35.321Z,1025.1
2017-07-07T11:42:35.324Z,1025.11
2017-07-07T11:43:35.325Z,1025.07
2017-07-07T11:44:35.332Z,1025.08
2017-07-07T11:45:35.333Z,1025.1
2017-07-07T11:46:35.347Z,1025.19
2017-07-07T11:47:35.341Z,1025.25
2017-07-07T11:48:35.349Z,1025.29
2017-07-07T11:49:35.348Z,1025.35
2017-07-07T11:50:35.356Z,1025.41
2017-07-07T11:51:35.360Z,1025.41
2017-07-07T11:52:35.362Z,1025.44
2017-07-07T11:53:35.367Z,1025.47
2017-07-07T11:54:35.369Z,1025.46
2017-07-07T11:55:35.373Z,1025.5
2017-07-07T11:56:35.377Z,1025.51
2017-07-07T11:57:35.384Z,1025.5
2017-07-07T11:58:35.387Z,1025.45
2017-07-07T11:59:35.384Z,1025.47
2017-07-07T12:00:35.390Z,1025.39
2017-07-07T12:01:35.392Z,1025.35
2017-07-07T12:02:35.399Z,1025.36
2017-07-07T12:03:35.402Z,1025.33
2017-07-07T12:04:35.406Z,1025.21
2017-07-07T12:05:35.405Z,1025.18
2017-07-07T12:06:35.414Z,1025.14
2017-07-07T12:07:35.417Z,1025.07
2017-07-07T12:08:35.418Z,1025.06